createdAt,value
2023-05-04T00:01:29.546Z,8.73
2023-05-04T00:03:56.908Z,7.77
2023-05-04T00:06:24.213Z,8.70
2023-05-04T00:08:51.370Z,8.63
2023-05-04T00:11:18.573Z,8.60
2023-05-04T00:13:46.037Z,8.50
2023-05-04T00:16:13.369Z,8.53
2023-05-04T00:18:41.248Z,7.70
2023-05-04T00:21:08.960Z,8.17
2023-05-04T00:23:36.252Z,7.63
2023-05-04T00:26:03.806Z,8.27
2023-05-04T00:28:31.396Z,7.90
2023-05-04T00:30:58.657Z,8.27
2023-05-04T00:33:25.953Z,7.73
2023-05-04T00:35:53.188Z,8.50
2023-05-04T00:38:21.240Z,7.60
2023-05-04T00:40:48.949Z,8.80
2023-05-04T00:43:16.160Z,7.60
2023-05-04T00:45:43.985Z,8.30
2023-05-04T00:48:14.121Z,7.93
2023-05-04T00:50:41.864Z,8.80
2023-05-04T00:53:11.521Z,7.70
2023-05-04T00:55:42.517Z,8.07
2023-05-04T00:58:09.913Z,8.07
2023-05-04T01:00:37.239Z,7.80
2023-05-04T01:03:04.614Z,7.50
2023-05-04T01:05:38.346Z,7.27
2023-05-04T01:08:13.488Z,7.73
2023-05-04T01:11:00.536Z,7.60
2023-05-04T01:13:28.428Z,7.07
2023-05-04T01:15:55.812Z,7.73
2023-05-04T01:18:23.381Z,6.70
2023-05-04T01:20:51.453Z,7.80
2023-05-04T01:23:18.650Z,7.47
2023-05-04T01:26:00.160Z,5.90
2023-05-04T01:28:42.528Z,8.00
2023-05-04T01:31:14.296Z,6.43
2023-05-04T01:33:44.880Z,6.93
2023-05-04T01:36:12.143Z,7.13
2023-05-04T01:38:39.380Z,7.50
2023-05-04T01:41:07.489Z,7.10
2023-05-04T01:43:34.694Z,7.00
2023-05-04T01:46:02.056Z,8.07
2023-05-04T01:48:30.066Z,7.70
2023-05-04T01:50:57.831Z,8.47
2023-05-04T01:53:25.029Z,7.60
2023-05-04T01:55:53.898Z,7.60
2023-05-04T01:58:21.209Z,6.90
2023-05-04T02:00:48.459Z,7.30
2023-05-04T02:03:15.695Z,8.00
2023-05-04T02:05:43.124Z,7.37
2023-05-04T02:08:10.520Z,7.20
2023-05-04T02:10:37.700Z,8.23
2023-05-04T02:13:05.214Z,7.57
2023-05-04T02:15:33.474Z,7.10
2023-05-04T02:18:00.698Z,7.80
2023-05-04T02:20:28.397Z,7.37
2023-05-04T02:22:55.952Z,7.23
2023-05-04T02:25:23.406Z,7.80
2023-05-04T02:27:50.618Z,6.70
2023-05-04T02:30:18.664Z,7.37
2023-05-04T02:32:46.462Z,7.30
2023-05-04T02:35:13.767Z,7.20
2023-05-04T02:37:40.952Z,6.53
2023-05-04T02:40:08.736Z,6.93
2023-05-04T02:42:35.901Z,7.57
2023-05-04T02:45:03.662Z,7.63
2023-05-04T02:47:31.003Z,7.17
2023-05-04T02:50:01.152Z,8.00
2023-05-04T02:52:28.847Z,7.67
2023-05-04T02:54:56.561Z,7.57
2023-05-04T02:57:23.794Z,8.40
2023-05-04T02:59:51.518Z,8.30
2023-05-04T03:02:19.044Z,8.00
2023-05-04T03:04:46.373Z,7.57
2023-05-04T03:07:13.653Z,8.57
2023-05-04T03:09:40.895Z,7.53
2023-05-04T03:12:08.537Z,7.90
2023-05-04T03:14:36.596Z,8.00
2023-05-04T03:17:04.164Z,8.43
2023-05-04T03:19:31.468Z,7.83
2023-05-04T03:21:59.877Z,7.90
2023-05-04T03:24:28.017Z,7.53
2023-05-04T03:26:55.407Z,8.13
2023-05-04T03:29:23.528Z,8.90
2023-05-04T03:31:51.299Z,8.17
2023-05-04T03:34:21.393Z,9.17
2023-05-04T03:36:51.123Z,8.30
2023-05-04T03:39:18.429Z,8.80
2023-05-04T03:41:46.463Z,8.90
2023-05-04T03:44:13.652Z,7.63
2023-05-04T03:46:40.923Z,8.20
2023-05-04T03:49:08.450Z,9.90
2023-05-04T03:51:35.674Z,10.30
2023-05-04T03:54:03.441Z,9.53
2023-05-04T03:56:30.747Z,8.80
2023-05-04T03:58:59.180Z,9.13
2023-05-04T04:01:30.525Z,10.20
2023-05-04T04:03:57.947Z,9.63
2023-05-04T04:06:25.346Z,9.43
2023-05-04T04:08:53.139Z,9.00
2023-05-04T04:11:20.492Z,10.10
2023-05-04T04:13:48.610Z,10.50
2023-05-04T04:16:16.182Z,8.83
2023-05-04T04:18:43.423Z,9.97
2023-05-04T04:21:10.657Z,10.47
2023-05-04T04:23:38.836Z,9.13
2023-05-04T04:26:06.513Z,9.50
2023-05-04T04:28:33.948Z,10.90
2023-05-04T04:31:02.042Z,10.10
2023-05-04T04:33:29.287Z,9.40
2023-05-04T04:35:56.494Z,9.53
2023-05-04T04:38:23.656Z,12.03
2023-05-04T04:40:50.825Z,10.33
2023-05-04T04:43:19.854Z,10.97
2023-05-04T04:45:47.916Z,12.07
2023-05-04T04:48:15.192Z,11.30
2023-05-04T04:50:42.888Z,11.00
2023-05-04T04:53:10.856Z,11.80
2023-05-04T04:55:38.091Z,9.93
2023-05-04T04:58:05.492Z,9.50
2023-05-04T05:00:32.665Z,9.50
2023-05-04T05:02:59.924Z,8.77
2023-05-04T05:05:28.064Z,8.47
2023-05-04T05:07:56.718Z,9.60
2023-05-04T05:10:24.555Z,8.03
2023-05-04T05:12:51.834Z,8.67
2023-05-04T05:15:19.129Z,9.10
2023-05-04T05:17:46.378Z,7.60
2023-05-04T05:20:15.119Z,7.53
2023-05-04T05:22:42.883Z,8.70
2023-05-04T05:25:12.202Z,6.40
2023-05-04T05:27:39.409Z,7.27
2023-05-04T05:30:07.453Z,6.43
2023-05-04T05:32:35.108Z,7.30
2023-05-04T05:35:02.708Z,6.70
2023-05-04T05:37:31.346Z,7.00
2023-05-04T05:39:59.133Z,6.63
2023-05-04T05:42:26.744Z,6.43
2023-05-04T05:44:53.952Z,6.33
2023-05-04T05:47:21.598Z,6.53
2023-05-04T05:49:48.936Z,5.70
2023-05-04T05:52:16.114Z,5.60
2023-05-04T05:54:43.878Z,5.70
2023-05-04T05:57:11.047Z,5.80
2023-05-04T05:59:38.264Z,5.77
2023-05-04T06:02:06.040Z,5.03
2023-05-04T06:04:33.286Z,5.30
2023-05-04T06:07:01.226Z,4.90
2023-05-04T06:09:28.394Z,5.30
2023-05-04T06:11:55.711Z,4.17
2023-05-04T06:14:23.066Z,3.73
2023-05-04T06:16:50.293Z,3.30
2023-05-04T06:19:17.770Z,3.83
2023-05-04T06:21:44.971Z,2.60
2023-05-04T06:24:12.099Z,3.50
2023-05-04T06:26:39.923Z,3.23
2023-05-04T06:29:07.096Z,3.57
2023-05-04T06:31:35.611Z,2.60
2023-05-04T06:34:03.151Z,3.23
2023-05-04T06:36:30.336Z,2.30
2023-05-04T06:38:58.265Z,2.17
2023-05-04T06:41:26.402Z,2.70
2023-05-04T06:43:53.670Z,3.00
2023-05-04T06:46:21.680Z,2.33
2023-05-04T06:48:49.265Z,2.20
2023-05-04T06:51:16.465Z,2.10
2023-05-04T06:53:43.613Z,1.97
2023-05-04T06:56:11.520Z,2.47
2023-05-04T06:58:39.270Z,2.40
2023-05-04T07:01:09.068Z,1.90
2023-05-04T07:03:36.990Z,2.40
2023-05-04T07:06:04.923Z,2.57
2023-05-04T07:08:33.134Z,2.27
2023-05-04T07:11:01.100Z,2.80
2023-05-04T07:13:28.812Z,2.80
2023-05-04T07:15:56.422Z,2.70
2023-05-04T07:18:23.657Z,1.80
2023-05-04T07:20:51.339Z,2.57
2023-05-04T07:23:19.163Z,2.50
2023-05-04T07:25:46.323Z,2.30
2023-05-04T07:28:13.486Z,2.40
2023-05-04T07:30:40.784Z,2.50
2023-05-04T07:33:08.040Z,2.23
2023-05-04T07:35:35.236Z,2.87
2023-05-04T07:38:02.901Z,2.83
2023-05-04T07:40:30.084Z,2.13
2023-05-04T07:42:57.848Z,1.90
2023-05-04T07:45:25.859Z,2.10
2023-05-04T07:47:53.640Z,2.80
2023-05-04T07:50:20.884Z,2.40
2023-05-04T07:52:49.637Z,1.90
2023-05-04T07:55:17.037Z,2.40
2023-05-04T07:57:44.746Z,2.30
2023-05-04T08:00:13.303Z,2.57
2023-05-04T08:02:45.094Z,2.10
2023-05-04T08:05:12.451Z,1.87
2023-05-04T08:07:39.890Z,2.30
2023-05-04T08:10:08.892Z,1.87
2023-05-04T08:12:36.205Z,2.30
2023-05-04T08:15:04.702Z,2.40
2023-05-04T08:17:32.781Z,2.53
2023-05-04T08:20:01.137Z,2.40
2023-05-04T08:22:28.292Z,2.23
2023-05-04T08:24:55.522Z,2.37
2023-05-04T08:27:22.741Z,2.50
2023-05-04T08:29:49.926Z,2.50
2023-05-04T08:32:18.484Z,2.17
2023-05-04T08:34:45.601Z,1.97
2023-05-04T08:37:13.963Z,2.13
2023-05-04T08:39:42.043Z,1.90
2023-05-04T08:42:10.288Z,2.00
2023-05-04T08:44:37.477Z,1.90
2023-05-04T08:47:04.949Z,2.20
2023-05-04T08:49:32.806Z,2.40
2023-05-04T08:52:01.021Z,2.03
2023-05-04T08:54:29.606Z,1.80
2023-05-04T08:56:57.268Z,2.20
2023-05-04T08:59:27.139Z,1.80
2023-05-04T09:01:58.556Z,2.33
2023-05-04T09:04:28.646Z,2.07
2023-05-04T09:06:57.799Z,2.17
2023-05-04T09:09:28.383Z,1.90
2023-05-04T09:11:55.918Z,2.03
2023-05-04T09:14:32.668Z,1.87
2023-05-04T09:17:00.906Z,1.70
2023-05-04T09:19:33.871Z,1.97
2023-05-04T09:22:01.884Z,1.90
2023-05-04T09:24:30.060Z,1.90
2023-05-04T09:27:09.726Z,1.77
2023-05-04T09:29:39.574Z,1.90
2023-05-04T09:32:12.208Z,1.73
2023-05-04T09:34:51.223Z,2.07
2023-05-04T09:37:22.106Z,1.70
2023-05-04T09:39:58.287Z,1.80
2023-05-04T09:42:27.170Z,2.33
2023-05-04T09:45:03.137Z,1.70
2023-05-04T09:47:35.232Z,1.90
2023-05-04T09:50:14.823Z,1.50
2023-05-04T09:52:44.166Z,2.20
2023-05-04T09:55:13.523Z,2.03
2023-05-04T09:57:44.771Z,1.80
2023-05-04T10:00:13.899Z,1.93
2023-05-04T10:02:42.950Z,1.80
2023-05-04T10:05:14.633Z,2.03
2023-05-04T10:07:43.893Z,1.80
2023-05-04T10:10:15.071Z,2.00
2023-05-04T10:12:45.551Z,1.90
2023-05-04T10:15:14.361Z,1.83
2023-05-04T10:18:11.337Z,2.30
2023-05-04T10:20:57.644Z,1.80
2023-05-04T10:23:54.720Z,2.00
2023-05-04T10:26:53.477Z,1.93
2023-05-04T10:29:23.969Z,1.80
2023-05-04T10:31:53.269Z,2.17
2023-05-04T10:34:46.803Z,2.00
2023-05-04T10:37:20.111Z,1.63
2023-05-04T10:39:53.437Z,1.77
2023-05-04T10:42:21.327Z,1.63
2023-05-04T10:44:56.723Z,1.50
2023-05-04T10:47:35.351Z,1.83
2023-05-04T10:50:14.076Z,1.50
2023-05-04T10:52:51.966Z,1.57
2023-05-04T10:55:20.554Z,1.97
2023-05-04T10:57:55.180Z,1.67
2023-05-04T11:00:24.347Z,1.60
2023-05-04T11:03:02.024Z,2.07
2023-05-04T11:05:43.847Z,1.77
2023-05-04T11:08:21.573Z,1.90
2023-05-04T11:11:01.221Z,1.83
2023-05-04T11:13:33.955Z,1.80
2023-05-04T11:16:02.009Z,1.67
2023-05-04T11:18:31.581Z,1.37
2023-05-04T11:20:58.872Z,1.83
2023-05-04T11:23:27.044Z,2.70
2023-05-04T11:25:54.749Z,1.97
2023-05-04T11:28:36.183Z,1.70
2023-05-04T11:31:16.922Z,1.77
2023-05-04T11:33:49.185Z,2.00
2023-05-04T11:36:17.272Z,2.03
2023-05-04T11:38:45.149Z,2.30
2023-05-04T11:41:12.923Z,2.03
2023-05-04T11:43:42.198Z,2.07
2023-05-04T11:46:10.256Z,1.90
2023-05-04T11:48:39.882Z,1.97
2023-05-04T11:51:07.435Z,2.00
2023-05-04T11:53:39.969Z,1.70
2023-05-04T11:56:11.006Z,1.83
2023-05-04T11:58:39.065Z,1.80
2023-05-04T12:01:06.315Z,1.87
2023-05-04T12:06:05.577Z,1.70
2023-05-04T12:08:35.281Z,2.00
2023-05-04T12:11:09.988Z,1.90
2023-05-04T12:13:38.020Z,1.83
2023-05-04T12:16:16.895Z,2.10
2023-05-04T12:18:46.004Z,2.27
2023-05-04T12:21:14.448Z,2.40
2023-05-04T12:23:42.701Z,1.43
2023-05-04T12:26:10.701Z,1.77
2023-05-04T12:28:39.900Z,1.73
2023-05-04T12:31:07.690Z,2.00
2023-05-04T12:33:36.294Z,2.17
2023-05-04T12:36:05.743Z,1.70
2023-05-04T12:38:33.780Z,1.70
2023-05-04T12:41:04.220Z,2.03
2023-05-04T12:43:32.897Z,1.67
2023-05-04T12:46:00.799Z,1.90
2023-05-04T12:48:31.474Z,1.63
2023-05-04T12:50:59.467Z,2.13
2023-05-04T12:53:29.918Z,2.10
2023-05-04T12:55:57.291Z,2.03
2023-05-04T12:58:24.863Z,1.40
2023-05-04T13:00:52.080Z,1.57
2023-05-04T13:03:19.769Z,2.10
2023-05-04T13:05:48.198Z,1.73
2023-05-04T13:08:16.679Z,1.80
2023-05-04T13:10:46.029Z,2.03
2023-05-04T13:13:16.009Z,1.50
2023-05-04T13:15:44.213Z,1.63
2023-05-04T13:18:12.547Z,1.93
2023-05-04T13:20:40.851Z,2.30
2023-05-04T13:23:08.397Z,1.90
2023-05-04T13:25:35.606Z,1.70
2023-05-04T13:28:03.548Z,2.20
2023-05-04T13:30:30.803Z,1.77
2023-05-04T13:32:58.389Z,1.60
2023-05-04T13:35:25.626Z,1.80
2023-05-04T13:37:52.828Z,1.53
2023-05-04T13:40:20.175Z,1.70
2023-05-04T13:42:47.846Z,1.60
2023-05-04T13:45:15.074Z,1.63
2023-05-04T13:47:42.307Z,1.73
2023-05-04T13:50:09.962Z,2.20
2023-05-04T13:52:37.473Z,1.80
2023-05-04T13:55:05.346Z,1.53
2023-05-04T13:57:32.755Z,1.63
2023-05-04T14:00:07.072Z,2.10
2023-05-04T14:02:41.200Z,1.30
2023-05-04T14:05:09.676Z,1.93
2023-05-04T14:07:37.467Z,1.33
2023-05-04T14:10:05.186Z,1.17
2023-05-04T14:12:33.071Z,1.77
2023-05-04T14:15:01.304Z,1.80
2023-05-04T14:17:28.641Z,1.60
2023-05-04T14:19:56.203Z,1.87
2023-05-04T14:22:23.641Z,1.77
2023-05-04T14:24:51.073Z,1.70
2023-05-04T14:27:18.219Z,1.67
2023-05-04T14:29:47.765Z,1.80
2023-05-04T14:32:16.109Z,1.97
2023-05-04T14:34:43.329Z,1.43
2023-05-04T14:37:10.750Z,2.07
2023-05-04T14:39:39.347Z,1.70
2023-05-04T14:42:06.603Z,1.70
2023-05-04T14:44:34.111Z,1.60
2023-05-04T14:47:05.398Z,2.27
2023-05-04T14:49:37.349Z,1.73
2023-05-04T14:52:05.054Z,1.93
2023-05-04T14:54:32.458Z,1.70
2023-05-04T14:57:00.122Z,1.40
2023-05-04T14:59:27.728Z,1.53
2023-05-04T15:01:55.778Z,1.43
2023-05-04T15:04:23.105Z,1.60
2023-05-04T15:06:52.308Z,1.87
2023-05-04T15:09:19.484Z,1.57
2023-05-04T15:11:46.880Z,1.67
2023-05-04T15:14:15.367Z,1.80
2023-05-04T15:16:42.719Z,1.47
2023-05-04T15:19:09.965Z,1.50
2023-05-04T15:21:37.177Z,1.40
2023-05-04T15:24:04.893Z,1.70
2023-05-04T15:26:33.746Z,1.77
2023-05-04T15:29:00.895Z,2.20
2023-05-04T15:31:32.007Z,1.63
2023-05-04T15:34:01.085Z,2.50
2023-05-04T15:36:28.339Z,2.10
2023-05-04T15:38:55.592Z,1.83
2023-05-04T15:41:22.938Z,1.57
2023-05-04T15:43:50.229Z,1.87
2023-05-04T15:46:17.412Z,1.80
2023-05-04T15:48:44.608Z,1.60
2023-05-04T15:51:12.101Z,1.63
2023-05-04T15:53:39.470Z,1.87
2023-05-04T15:56:07.679Z,1.93
2023-05-04T15:58:34.890Z,1.67
2023-05-04T16:01:03.863Z,1.67
2023-05-04T16:03:31.805Z,1.60
2023-05-04T16:05:59.088Z,1.57
2023-05-04T16:08:26.313Z,1.60
2023-05-04T16:10:53.818Z,1.70
2023-05-04T16:13:21.085Z,1.40
2023-05-04T16:15:51.981Z,1.67
2023-05-04T16:18:19.737Z,1.30
2023-05-04T16:20:47.734Z,1.70
2023-05-04T16:23:17.107Z,1.80
2023-05-04T16:25:44.392Z,1.50
2023-05-04T16:28:11.659Z,1.90
2023-05-04T16:30:38.994Z,1.77
2023-05-04T16:33:06.254Z,1.50
2023-05-04T16:35:34.814Z,1.90
2023-05-04T16:38:02.069Z,1.40
2023-05-04T16:40:29.401Z,1.63
2023-05-04T16:42:56.714Z,1.60
2023-05-04T16:45:25.558Z,1.40
2023-05-04T16:47:52.857Z,1.50
2023-05-04T16:50:20.050Z,1.30
2023-05-04T16:52:47.228Z,1.50
2023-05-04T16:55:15.138Z,1.50
2023-05-04T16:57:42.494Z,1.57
2023-05-04T17:00:10.531Z,1.23
2023-05-04T17:02:37.837Z,1.30
2023-05-04T17:05:07.225Z,1.53
2023-05-04T17:07:34.381Z,1.80
2023-05-04T17:10:01.738Z,1.77
2023-05-04T17:12:30.824Z,1.87
2023-05-04T17:14:58.234Z,2.70
2023-05-04T17:17:25.719Z,2.53
2023-05-04T17:19:52.987Z,2.50
2023-05-04T17:22:20.367Z,2.37
2023-05-04T17:24:47.665Z,2.93
2023-05-04T17:27:15.250Z,2.87
2023-05-04T17:29:44.500Z,3.10
2023-05-04T17:32:11.804Z,2.53
2023-05-04T17:34:39.156Z,3.20
2023-05-04T17:37:06.349Z,2.47
2023-05-04T17:39:33.645Z,3.30
2023-05-04T17:42:01.858Z,3.67
2023-05-04T17:44:29.775Z,3.07
2023-05-04T17:46:57.044Z,2.80
2023-05-04T17:49:24.805Z,2.97
2023-05-04T17:51:53.065Z,3.70
2023-05-04T17:54:20.329Z,3.43
2023-05-04T17:56:47.653Z,3.50
2023-05-04T17:59:16.772Z,3.00
2023-05-04T18:01:44.126Z,3.30
2023-05-04T18:04:11.556Z,3.27
2023-05-04T18:06:38.876Z,3.40
2023-05-04T18:09:06.869Z,3.00
2023-05-04T18:11:34.647Z,3.60
2023-05-04T18:14:02.300Z,3.80
2023-05-04T18:16:29.552Z,3.27
2023-05-04T18:18:58.412Z,3.87
2023-05-04T18:21:26.731Z,3.67
2023-05-04T18:23:53.956Z,3.70
2023-05-04T18:26:22.353Z,3.43
2023-05-04T18:28:49.755Z,3.70
2023-05-04T18:31:18.816Z,3.27
2023-05-04T18:33:46.147Z,3.47
2023-05-04T18:36:17.174Z,3.03
2023-05-04T18:38:48.139Z,4.03
2023-05-04T18:41:16.292Z,3.30
2023-05-04T18:43:44.994Z,4.17
2023-05-04T18:46:13.008Z,3.93
2023-05-04T18:48:40.815Z,4.00
2023-05-04T18:51:08.731Z,3.90
2023-05-04T18:53:36.031Z,3.50
2023-05-04T18:56:07.736Z,3.93
2023-05-04T18:58:38.853Z,3.97
2023-05-04T19:01:06.875Z,3.97
2023-05-04T19:03:34.252Z,3.50
2023-05-04T19:06:01.602Z,4.00
2023-05-04T19:08:28.947Z,3.87
2023-05-04T19:10:59.313Z,3.90
2023-05-04T19:13:29.943Z,4.10
2023-05-04T19:15:57.358Z,4.43
2023-05-04T19:18:24.845Z,4.63
2023-05-04T19:20:52.295Z,4.30
2023-05-04T19:23:20.343Z,4.70
2023-05-04T19:25:47.658Z,4.73
2023-05-04T19:28:14.998Z,4.33
2023-05-04T19:30:42.388Z,4.60
2023-05-04T19:33:09.766Z,4.20
2023-05-04T19:35:37.406Z,4.20
2023-05-04T19:38:07.491Z,4.60
2023-05-04T19:40:35.621Z,4.50
2023-05-04T19:43:03.825Z,4.20
2023-05-04T19:45:32.510Z,4.30
2023-05-04T19:48:00.216Z,4.43
2023-05-04T19:50:27.587Z,3.93
2023-05-04T19:52:54.876Z,3.17
2023-05-04T19:55:22.469Z,3.70
2023-05-04T19:57:49.970Z,3.77
2023-05-04T20:00:19.529Z,3.17
2023-05-04T20:02:47.016Z,3.27
2023-05-04T20:05:14.653Z,3.90
2023-05-04T20:07:42.162Z,3.27
2023-05-04T20:10:09.682Z,3.47
2023-05-04T20:12:37.195Z,3.20
2023-05-04T20:15:06.310Z,2.97
2023-05-04T20:17:33.761Z,2.90
2023-05-04T20:20:03.564Z,3.37
2023-05-04T20:22:30.917Z,2.90
2023-05-04T20:24:58.778Z,2.90
2023-05-04T20:27:26.697Z,3.50
2023-05-04T20:29:54.322Z,3.70
2023-05-04T20:32:22.736Z,3.20
2023-05-04T20:34:50.413Z,3.10
2023-05-04T20:37:18.646Z,3.40
2023-05-04T20:39:47.310Z,3.30
2023-05-04T20:42:14.489Z,3.20
2023-05-04T20:44:42.055Z,2.90
2023-05-04T20:47:09.359Z,3.60
2023-05-04T20:49:37.246Z,3.70
2023-05-04T20:52:04.870Z,3.60
2023-05-04T20:54:32.047Z,3.00
2023-05-04T20:56:59.322Z,3.30
2023-05-04T20:59:26.469Z,3.43
2023-05-04T21:01:54.008Z,3.70
2023-05-04T21:04:21.820Z,3.50
2023-05-04T21:06:49.226Z,2.90
2023-05-04T21:09:16.577Z,2.90
2023-05-04T21:11:44.076Z,3.67
2023-05-04T21:14:11.245Z,3.13
2023-05-04T21:16:38.408Z,3.57
2023-05-04T21:19:05.665Z,3.80
2023-05-04T21:21:34.679Z,3.90
2023-05-04T21:24:01.884Z,3.60
2023-05-04T21:26:29.068Z,4.30
2023-05-04T21:28:56.227Z,3.97
2023-05-04T21:31:23.475Z,4.07
2023-05-04T21:33:51.245Z,3.67
2023-05-04T21:36:18.410Z,4.00
2023-05-04T21:38:45.553Z,3.40
2023-05-04T21:41:14.825Z,3.77
2023-05-04T21:43:43.158Z,3.40
2023-05-04T21:46:11.886Z,4.03
2023-05-04T21:48:39.789Z,3.37
2023-05-04T21:51:07.582Z,3.80
2023-05-04T21:53:34.795Z,4.13
2023-05-04T21:56:09.494Z,3.73
2023-05-04T21:58:39.572Z,4.17
2023-05-04T22:01:07.908Z,3.60
2023-05-04T22:03:36.027Z,4.17
2023-05-04T22:06:03.542Z,3.60
2023-05-04T22:08:30.808Z,3.90
2023-05-04T22:10:58.729Z,3.63
2023-05-04T22:13:26.202Z,3.47
2023-05-04T22:15:54.143Z,3.40
2023-05-04T22:18:21.417Z,3.47
2023-05-04T22:20:48.619Z,4.23
2023-05-04T22:23:16.001Z,2.97
2023-05-04T22:25:43.221Z,3.90
2023-05-04T22:28:10.933Z,2.60
2023-05-04T22:30:38.155Z,3.20
2023-05-04T22:33:05.545Z,3.13
2023-05-04T22:35:32.774Z,3.70
2023-05-04T22:37:59.908Z,3.07
2023-05-04T22:40:27.255Z,2.77
2023-05-04T22:42:54.378Z,2.70
2023-05-04T22:45:21.920Z,3.10
2023-05-04T22:47:49.133Z,3.00
2023-05-04T22:50:17.323Z,3.53
2023-05-04T22:52:44.606Z,3.00
2023-05-04T22:55:12.249Z,2.90
2023-05-04T22:57:39.387Z,2.60
2023-05-04T23:00:07.464Z,2.47
2023-05-04T23:02:35.665Z,3.40
2023-05-04T23:05:03.767Z,2.30
2023-05-04T23:07:30.994Z,2.60
2023-05-04T23:09:58.183Z,2.53
2023-05-04T23:12:26.754Z,2.50
2023-05-04T23:14:54.788Z,2.80
2023-05-04T23:17:23.129Z,2.40
2023-05-04T23:19:50.579Z,2.63
2023-05-04T23:22:17.728Z,2.40
2023-05-04T23:24:44.865Z,2.60
2023-05-04T23:27:12.306Z,2.43
2023-05-04T23:29:39.421Z,2.50
2023-05-04T23:32:06.703Z,2.60
2023-05-04T23:34:33.910Z,2.30
2023-05-04T23:37:01.473Z,2.70
2023-05-04T23:39:28.680Z,2.20
2023-05-04T23:41:56.026Z,2.20
2023-05-04T23:44:23.142Z,2.33
2023-05-04T23:46:50.256Z,2.27
2023-05-04T23:49:17.626Z,2.20
2023-05-04T23:51:44.999Z,2.47
2023-05-04T23:54:13.532Z,2.10
2023-05-04T23:56:40.648Z,2.53
2023-05-04T23:59:07.756Z,2.20
